Time;durP1;ratioP1;P1;durP2;ratioP2;P2;SDS_P1;SDS_P2;PMS_P1;PMS_P2;Temp;Humidity;BMP_temperature;BMP_pressure;BME280_temperature;BME280_humidity;BME280_pressure;Samples;Min_cycle;Max_cycle;Signal;HPM_P1;HPM_P2
2021/07/16 00:02:24;;;;;;;;;;;24.80;63.70;;;;;;5133751;27;20371;-56
2021/07/16 00:04:51;;;;;;;;;;;24.80;63.80;;;;;;5117166;27;19923;-58
2021/07/16 00:07:18;;;;;;;;;;;24.70;63.70;;;;;;5131085;27;20014;-58
2021/07/16 00:09:45;;;;;;;;;;;24.80;63.80;;;;;;5131023;27;20003;-58
2021/07/16 00:12:12;;;;;;;;;;;24.80;63.80;;;;;;5130998;27;19924;-57
2021/07/16 00:14:38;;;;;;;;;;;24.70;63.70;;;;;;5132267;27;19923;-58
2021/07/16 00:17:05;;;;;;;;;;;24.70;63.70;;;;;;5133277;27;19923;-58
2021/07/16 00:19:32;;;;;;;;;;;24.80;63.80;;;;;;5133562;27;19927;-57
2021/07/16 00:21:59;;;;;;;;;;;24.70;63.70;;;;;;5124903;27;19927;-58
2021/07/16 00:24:26;;;;;;;;;;;24.70;63.70;;;;;;5125180;27;20336;-58
2021/07/16 00:26:53;;;;;;;;;;;24.70;63.70;;;;;;5123547;27;19973;-57
2021/07/16 00:29:20;;;;;;;;;;;24.70;63.60;;;;;;5116315;27;19925;-58
2021/07/16 00:31:47;;;;;;;;;;;24.70;63.60;;;;;;5119141;27;19924;-58
2021/07/16 00:34:14;;;;;;;;;;;24.70;63.60;;;;;;5131560;27;19930;-58
2021/07/16 00:36:41;;;;;;;;;;;24.70;63.60;;;;;;5129703;27;19973;-57
2021/07/16 00:39:08;;;;;;;;;;;24.70;63.60;;;;;;5129959;27;19977;-57
2021/07/16 00:41:35;;;;;;;;;;;24.70;63.60;;;;;;5117653;27;20001;-58
2021/07/16 00:44:02;;;;;;;;;;;24.70;63.60;;;;;;5133060;27;20334;-58
2021/07/16 00:46:29;;;;;;;;;;;24.70;63.60;;;;;;5131584;27;19924;-58
2021/07/16 00:48:56;;;;;;;;;;;24.70;63.60;;;;;;5116047;27;20376;-56
2021/07/16 00:51:23;;;;;;;;;;;24.70;63.50;;;;;;5133038;27;19927;-58
2021/07/16 00:53:51;;;;;;;;;;;24.70;63.50;;;;;;5133159;27;19923;-58
2021/07/16 00:56:18;;;;;;;;;;;24.70;63.50;;;;;;5131918;27;20010;-58
2021/07/16 00:58:45;;;;;;;;;;;24.70;63.60;;;;;;5132344;27;19961;-56
2021/07/16 01:01:12;;;;;;;;;;;24.60;63.50;;;;;;5133537;27;20419;-58
2021/07/16 01:03:39;;;;;;;;;;;24.60;63.40;;;;;;5131889;27;19970;-58
2021/07/16 01:06:06;;;;;;;;;;;24.60;63.50;;;;;;5131437;27;19924;-57
2021/07/16 01:08:33;;;;;;;;;;;24.60;63.50;;;;;;5131357;27;19924;-56
2021/07/16 01:11:00;;;;;;;;;;;24.60;63.50;;;;;;5131295;27;19923;-58
2021/07/16 01:13:27;;;;;;;;;;;24.60;63.50;;;;;;5120277;28;20023;-55
2021/07/16 01:15:55;;;;;;;;;;;24.60;63.50;;;;;;5125169;28;20010;-56
2021/07/16 01:18:23;;;;;;;;;;;24.60;63.50;;;;;;5132410;28;20381;-57
2021/07/16 01:20:50;;;;;;;;;;;24.60;63.50;;;;;;5124616;28;20326;-55
2021/07/16 01:23:18;;;;;;;;;;;24.50;63.40;;;;;;5121564;28;19976;-57
2021/07/16 01:25:46;;;;;;;;;;;24.50;63.40;;;;;;5125983;28;19927;-57
2021/07/16 01:28:13;;;;;;;;;;;24.50;63.40;;;;;;5120229;28;19927;-55
2021/07/16 01:30:40;;;;;;;;;;;24.50;63.40;;;;;;5128963;28;19977;-57
2021/07/16 01:33:07;;;;;;;;;;;24.50;63.40;;;;;;5119716;28;19973;-57
2021/07/16 01:35:34;;;;;;;;;;;24.50;63.30;;;;;;5129420;28;19924;-57
2021/07/16 01:38:01;;;;;;;;;;;24.50;63.30;;;;;;5129472;28;19924;-57
2021/07/16 01:40:30;;;;;;;;;;;24.50;63.40;;;;;;5130867;28;19962;-57
2021/07/16 01:42:57;;;;;;;;;;;24.40;63.20;;;;;;5132264;28;19977;-58
2021/07/16 01:45:28;;;;;;;;;;;24.40;63.20;;;;;;5112802;28;19924;-57
2021/07/16 01:48:03;;;;;;;;;;;24.40;63.30;;;;;;5130955;28;19923;-58
2021/07/16 01:50:31;;;;;;;;;;;24.40;63.30;;;;;;5131330;28;19923;-56
2021/07/16 01:52:59;;;;;;;;;;;24.40;63.20;;;;;;5131283;28;19946;-58
2021/07/16 01:55:27;;;;;;;;;;;24.50;63.40;;;;;;5130733;28;19976;-57
2021/07/16 01:57:55;;;;;;;;;;;24.40;63.20;;;;;;5132898;28;20301;-57
2021/07/16 02:00:25;;;;;;;;;;;24.40;63.10;;;;;;5132455;28;19928;-58
2021/07/16 02:02:53;;;;;;;;;;;24.40;63.20;;;;;;5129719;28;20340;-57
2021/07/16 02:05:21;;;;;;;;;;;24.40;63.10;;;;;;5130444;28;19930;-58
2021/07/16 02:07:49;;;;;;;;;;;24.40;63.10;;;;;;5133074;28;19955;-57
2021/07/16 02:10:17;;;;;;;;;;;24.40;63.10;;;;;;5132040;28;20334;-58
2021/07/16 02:12:44;;;;;;;;;;;24.40;63.10;;;;;;5132201;28;19969;-57
2021/07/16 02:15:19;;;;;;;;;;;24.40;63.10;;;;;;5123110;27;19924;-57
2021/07/16 02:17:46;;;;;;;;;;;24.40;63.10;;;;;;5130725;27;19934;-57
2021/07/16 02:20:21;;;;;;;;;;;24.40;63.10;;;;;;5123038;27;19924;-57
2021/07/16 02:22:48;;;;;;;;;;;24.40;63.10;;;;;;5117543;27;19969;-57
2021/07/16 02:25:15;;;;;;;;;;;24.40;63.20;;;;;;5127630;27;20336;-57
2021/07/16 02:27:46;;;;;;;;;;;24.40;63.10;;;;;;5134105;27;19924;-57
2021/07/16 02:30:14;;;;;;;;;;;24.40;63.10;;;;;;5135740;27;20332;-58
2021/07/16 02:32:41;;;;;;;;;;;24.40;63.00;;;;;;5133997;27;19923;-58
2021/07/16 02:35:09;;;;;;;;;;;24.40;63.00;;;;;;5134064;27;19923;-58
2021/07/16 02:37:36;;;;;;;;;;;24.40;63.10;;;;;;5121861;27;19923;-57
2021/07/16 02:40:05;;;;;;;;;;;24.40;62.90;;;;;;5135004;27;20017;-57
2021/07/16 02:42:32;;;;;;;;;;;24.40;62.90;;;;;;5134134;27;19923;-57
2021/07/16 02:44:59;;;;;;;;;;;24.40;62.90;;;;;;5133938;27;19923;-57
2021/07/16 02:47:26;;;;;;;;;;;24.40;62.90;;;;;;5134430;27;19976;-57
2021/07/16 02:49:52;;;;;;;;;;;24.40;62.90;;;;;;5134072;27;19923;-58
2021/07/16 02:52:19;;;;;;;;;;;24.40;62.90;;;;;;5132696;27;19924;-57
2021/07/16 02:54:46;;;;;;;;;;;24.40;62.90;;;;;;5136191;27;19927;-57
2021/07/16 02:57:13;;;;;;;;;;;24.40;62.90;;;;;;5134561;27;20371;-57
2021/07/16 02:59:40;;;;;;;;;;;24.40;62.80;;;;;;5115770;28;19935;-58
2021/07/16 03:02:08;;;;;;;;;;;24.40;62.80;;;;;;5134836;27;19924;-58
2021/07/16 03:04:35;;;;;;;;;;;24.40;62.70;;;;;;5117806;27;19931;-58
2021/07/16 03:07:02;;;;;;;;;;;24.40;62.70;;;;;;5119227;27;19999;-58
2021/07/16 03:09:34;;;;;;;;;;;24.40;62.60;;;;;;5130642;27;19972;-58
2021/07/16 03:12:02;;;;;;;;;;;24.40;62.70;;;;;;5118625;27;20314;-58
2021/07/16 03:14:29;;;;;;;;;;;24.40;62.70;;;;;;5130407;27;19927;-58
2021/07/16 03:16:57;;;;;;;;;;;24.40;62.60;;;;;;5133044;27;20320;-59
2021/07/16 03:19:24;;;;;;;;;;;24.40;62.60;;;;;;5134590;27;19923;-58
2021/07/16 03:21:51;;;;;;;;;;;24.40;62.60;;;;;;5134410;27;19998;-57
2021/07/16 03:24:19;;;;;;;;;;;24.40;62.50;;;;;;5133507;27;20010;-58
2021/07/16 03:26:46;;;;;;;;;;;24.40;62.50;;;;;;5132790;27;20010;-58
2021/07/16 03:29:13;;;;;;;;;;;24.40;62.40;;;;;;5131500;27;19928;-58
2021/07/16 03:31:40;;;;;;;;;;;24.40;62.40;;;;;;5132989;27;20340;-57
2021/07/16 03:34:07;;;;;;;;;;;24.40;62.40;;;;;;5133260;27;19937;-58
2021/07/16 03:36:34;;;;;;;;;;;24.40;62.40;;;;;;5132315;27;20325;-57
2021/07/16 03:39:02;;;;;;;;;;;24.40;62.30;;;;;;5134173;27;19928;-57
2021/07/16 03:41:29;;;;;;;;;;;24.40;62.40;;;;;;5132968;27;20375;-57
2021/07/16 03:43:56;;;;;;;;;;;24.40;62.30;;;;;;5134536;27;20379;-57
2021/07/16 03:46:27;;;;;;;;;;;24.40;62.40;;;;;;5132468;27;19923;-56
2021/07/16 03:48:57;;;;;;;;;;;24.40;62.40;;;;;;5132495;27;19930;-57
2021/07/16 03:51:24;;;;;;;;;;;24.40;62.40;;;;;;5117045;27;19984;-58
2021/07/16 03:53:51;;;;;;;;;;;24.50;62.50;;;;;;5118071;27;19986;-57
2021/07/16 03:56:18;;;;;;;;;;;24.40;62.40;;;;;;5114377;28;19924;-58
2021/07/16 03:58:46;;;;;;;;;;;24.40;62.50;;;;;;5116051;27;20371;-55
2021/07/16 04:01:13;;;;;;;;;;;24.40;62.40;;;;;;5115691;27;19931;-57
2021/07/16 04:03:41;;;;;;;;;;;24.50;62.50;;;;;;5133530;27;19934;-58
2021/07/16 04:06:08;;;;;;;;;;;24.40;62.40;;;;;;5115340;27;19973;-58
2021/07/16 04:08:37;;;;;;;;;;;24.50;62.50;;;;;;5132009;27;20450;-55
2021/07/16 04:11:05;;;;;;;;;;;24.50;62.50;;;;;;5131182;27;20268;-58
2021/07/16 04:13:31;;;;;;;;;;;24.40;62.30;;;;;;5131737;27;19963;-57
2021/07/16 04:15:59;;;;;;;;;;;24.40;62.30;;;;;;5131046;27;20367;-57
2021/07/16 04:18:26;;;;;;;;;;;24.50;62.30;;;;;;5132084;27;19923;-58
2021/07/16 04:20:53;;;;;;;;;;;24.50;62.30;;;;;;5131634;27;20395;-57
2021/07/16 04:23:20;;;;;;;;;;;24.50;62.30;;;;;;5131941;27;19952;-59
2021/07/16 04:25:48;;;;;;;;;;;24.50;62.20;;;;;;5130532;27;19966;-58
2021/07/16 04:28:15;;;;;;;;;;;24.50;62.30;;;;;;5134367;27;19985;-58
2021/07/16 04:30:42;;;;;;;;;;;24.50;62.30;;;;;;5131798;27;19930;-58
2021/07/16 04:33:09;;;;;;;;;;;24.50;63.00;;;;;;5131497;27;19930;-57
2021/07/16 04:35:36;;;;;;;;;;;24.50;62.30;;;;;;5125506;27;19928;-59
2021/07/16 04:38:03;;;;;;;;;;;24.50;62.30;;;;;;5119400;27;19923;-57
2021/07/16 04:40:32;;;;;;;;;;;24.50;62.30;;;;;;5130430;27;20002;-58
2021/07/16 04:42:59;;;;;;;;;;;24.50;62.30;;;;;;5130308;27;19956;-58
2021/07/16 04:45:26;;;;;;;;;;;24.50;62.30;;;;;;5131478;27;19931;-58
2021/07/16 04:47:53;;;;;;;;;;;24.50;62.30;;;;;;5130534;27;19945;-58
2021/07/16 04:50:20;;;;;;;;;;;24.50;62.30;;;;;;5115975;27;19923;-59
2021/07/16 04:52:49;;;;;;;;;;;24.50;62.30;;;;;;5113401;28;19924;-58
2021/07/16 04:55:17;;;;;;;;;;;24.50;62.30;;;;;;5131828;27;19924;-58
2021/07/16 04:57:44;;;;;;;;;;;24.50;62.30;;;;;;5113315;28;19955;-56
2021/07/16 05:00:12;;;;;;;;;;;24.50;62.30;;;;;;5115709;27;20410;-58
2021/07/16 05:02:39;;;;;;;;;;;24.50;62.30;;;;;;5115687;27;19975;-57
2021/07/16 05:05:07;;;;;;;;;;;24.50;62.30;;;;;;5131019;27;20324;-58
2021/07/16 05:07:34;;;;;;;;;;;24.50;62.30;;;;;;5130222;27;19931;-58
2021/07/16 05:10:02;;;;;;;;;;;24.50;62.30;;;;;;5130555;27;19927;-58
2021/07/16 05:12:30;;;;;;;;;;;24.60;62.40;;;;;;5130091;27;19974;-58
2021/07/16 05:14:57;;;;;;;;;;;24.50;62.30;;;;;;5131026;27;19930;-58
2021/07/16 05:17:23;;;;;;;;;;;24.60;62.20;;;;;;5133883;27;19923;-58
2021/07/16 05:19:50;;;;;;;;;;;24.60;62.20;;;;;;5133444;28;19968;-58
2021/07/16 05:22:17;;;;;;;;;;;24.60;62.20;;;;;;5132814;28;20025;-58
2021/07/16 05:24:44;;;;;;;;;;;24.60;62.10;;;;;;5129952;28;19923;-57
2021/07/16 05:27:11;;;;;;;;;;;24.60;62.10;;;;;;5130714;28;20442;-58
2021/07/16 05:29:38;;;;;;;;;;;24.60;62.10;;;;;;5131330;28;20302;-59
2021/07/16 05:32:05;;;;;;;;;;;24.60;62.20;;;;;;5129796;28;19923;-59
2021/07/16 05:34:32;;;;;;;;;;;24.60;62.20;;;;;;5130798;28;19930;-59
2021/07/16 05:36:59;;;;;;;;;;;24.60;62.20;;;;;;5120708;28;19923;-59
2021/07/16 05:39:27;;;;;;;;;;;24.60;62.30;;;;;;5132398;28;19923;-57
2021/07/16 05:41:54;;;;;;;;;;;24.60;62.30;;;;;;5129496;28;19924;-57
2021/07/16 05:44:22;;;;;;;;;;;24.60;62.30;;;;;;5133581;28;19923;-57
2021/07/16 05:46:49;;;;;;;;;;;24.60;62.20;;;;;;5130191;28;19953;-57
2021/07/16 05:49:16;;;;;;;;;;;24.60;62.20;;;;;;5115217;27;20402;-57
2021/07/16 05:51:43;;;;;;;;;;;24.60;62.20;;;;;;5135311;27;19923;-57
2021/07/16 05:54:10;;;;;;;;;;;24.60;62.10;;;;;;5135069;27;19923;-57
2021/07/16 05:56:40;;;;;;;;;;;24.60;62.10;;;;;;5134680;27;19924;-58
2021/07/16 05:59:08;;;;;;;;;;;24.60;62.00;;;;;;5134949;27;19954;-58
2021/07/16 06:01:35;;;;;;;;;;;24.60;62.00;;;;;;5133597;27;19981;-58
2021/07/16 06:04:09;;;;;;;;;;;24.60;62.00;;;;;;5120211;27;19931;-57
2021/07/16 06:06:37;;;;;;;;;;;24.60;62.00;;;;;;5118480;27;19930;-58
2021/07/16 06:09:06;;;;;;;;;;;24.60;61.90;;;;;;5118448;27;20010;-57
2021/07/16 06:11:33;;;;;;;;;;;24.60;61.90;;;;;;5117633;27;19923;-57
2021/07/16 06:14:00;;;;;;;;;;;24.60;61.80;;;;;;5131681;27;20397;-57
2021/07/16 06:16:27;;;;;;;;;;;24.70;61.90;;;;;;5123813;27;19923;-57
2021/07/16 06:18:54;;;;;;;;;;;24.70;61.80;;;;;;5130538;27;19930;-57
2021/07/16 06:21:21;;;;;;;;;;;24.70;61.80;;;;;;5127065;27;19970;-58
2021/07/16 06:23:48;;;;;;;;;;;24.70;61.90;;;;;;5127569;27;20038;-58
2021/07/16 06:26:15;;;;;;;;;;;24.70;61.80;;;;;;5125604;27;19923;-59
2021/07/16 06:28:42;;;;;;;;;;;24.70;61.90;;;;;;5136417;27;19927;-59
2021/07/16 06:31:09;;;;;;;;;;;24.70;61.80;;;;;;5133915;27;19935;-58
2021/07/16 06:33:36;;;;;;;;;;;24.80;61.70;;;;;;5134699;27;19972;-57
2021/07/16 06:36:03;;;;;;;;;;;24.80;61.70;;;;;;5135282;27;19971;-58
2021/07/16 06:38:30;;;;;;;;;;;24.80;61.50;;;;;;5133753;27;19932;-57
2021/07/16 06:40:58;;;;;;;;;;;24.80;61.50;;;;;;5117995;27;20439;-58
2021/07/16 06:43:24;;;;;;;;;;;24.80;61.40;;;;;;5134000;27;20443;-58
2021/07/16 06:45:51;;;;;;;;;;;24.80;61.30;;;;;;5132642;27;20007;-58
2021/07/16 06:48:18;;;;;;;;;;;24.80;61.20;;;;;;5133849;27;19924;-58
2021/07/16 06:50:46;;;;;;;;;;;24.80;61.30;;;;;;5133968;27;20445;-58
2021/07/16 06:53:13;;;;;;;;;;;24.80;61.20;;;;;;5135024;27;19949;-58
2021/07/16 06:55:40;;;;;;;;;;;24.80;61.00;;;;;;5135933;27;19969;-58
2021/07/16 06:58:07;;;;;;;;;;;24.90;61.10;;;;;;5117882;27;19989;-58
2021/07/16 07:00:34;;;;;;;;;;;24.80;60.90;;;;;;5132819;27;19974;-58
2021/07/16 07:03:02;;;;;;;;;;;24.80;61.00;;;;;;5118063;27;20003;-58
2021/07/16 07:05:30;;;;;;;;;;;24.80;60.80;;;;;;5118024;27;20011;-58
2021/07/16 07:07:57;;;;;;;;;;;24.90;60.80;;;;;;5129461;27;19972;-58
2021/07/16 07:10:24;;;;;;;;;;;24.90;60.80;;;;;;5135669;27;19924;-58
2021/07/16 07:12:51;;;;;;;;;;;24.90;60.60;;;;;;5133225;27;19974;-58
2021/07/16 07:15:18;;;;;;;;;;;25.00;60.60;;;;;;5133418;27;19976;-57
2021/07/16 07:17:45;;;;;;;;;;;25.10;60.30;;;;;;5125117;27;20082;-59
2021/07/16 07:20:12;;;;;;;;;;;25.10;60.20;;;;;;5125736;27;20039;-58
2021/07/16 07:22:40;;;;;;;;;;;25.10;60.10;;;;;;5132079;27;20263;-57
2021/07/16 07:25:08;;;;;;;;;;;25.10;60.00;;;;;;5134237;27;19978;-59
2021/07/16 07:27:35;;;;;;;;;;;25.20;59.90;;;;;;5135264;27;19923;-58
2021/07/16 07:30:03;;;;;;;;;;;25.30;59.60;;;;;;5131546;27;19972;-58
2021/07/16 07:32:30;;;;;;;;;;;25.30;59.40;;;;;;5132964;27;19930;-56
2021/07/16 07:34:57;;;;;;;;;;;25.30;59.40;;;;;;5132742;27;20007;-58
2021/07/16 07:37:24;;;;;;;;;;;25.30;59.50;;;;;;5131239;27;20001;-58
2021/07/16 07:39:51;;;;;;;;;;;25.30;59.40;;;;;;5134100;27;20350;-55
2021/07/16 07:42:21;;;;;;;;;;;25.30;59.40;;;;;;5116901;27;20418;-58
2021/07/16 07:44:48;;;;;;;;;;;25.30;59.30;;;;;;5133953;27;19970;-58
2021/07/16 07:47:16;;;;;;;;;;;25.30;59.40;;;;;;5133132;27;19975;-58
2021/07/16 07:49:43;;;;;;;;;;;25.30;59.40;;;;;;5133640;27;20117;-58
2021/07/16 07:52:10;;;;;;;;;;;25.30;59.30;;;;;;5116716;27;19924;-57
2021/07/16 07:54:37;;;;;;;;;;;25.30;59.40;;;;;;5117647;27;19973;-58
2021/07/16 07:57:04;;;;;;;;;;;25.30;59.40;;;;;;5130737;27;19924;-58
2021/07/16 07:59:31;;;;;;;;;;;25.30;59.10;;;;;;5132742;27;19975;-58
2021/07/16 08:01:58;;;;;;;;;;;25.30;59.10;;;;;;5133449;27;20431;-58
2021/07/16 08:04:27;;;;;;;;;;;25.30;59.20;;;;;;5116731;27;19924;-58
2021/07/16 08:06:54;;;;;;;;;;;25.30;59.40;;;;;;5132401;27;20074;-57
2021/07/16 08:09:22;;;;;;;;;;;25.30;59.40;;;;;;5132157;27;20382;-57
2021/07/16 08:11:49;;;;;;;;;;;25.30;59.30;;;;;;5122297;27;19981;-59
2021/07/16 08:14:15;;;;;;;;;;;25.30;59.40;;;;;;5123952;27;19967;-58
2021/07/16 08:16:46;;;;;;;;;;;25.40;59.20;;;;;;5130792;27;19930;-58
2021/07/16 08:19:18;;;;;;;;;;;25.40;59.20;;;;;;5134703;27;20339;-58
2021/07/16 08:21:49;;;;;;;;;;;25.40;59.30;;;;;;5132066;27;19976;-58
2021/07/16 08:24:16;;;;;;;;;;;25.40;60.00;;;;;;5131873;27;20379;-58
2021/07/16 08:26:43;;;;;;;;;;;25.40;59.50;;;;;;5132113;27;19971;-58
2021/07/16 08:29:10;;;;;;;;;;;25.40;59.30;;;;;;5131847;27;19989;-58
2021/07/16 08:31:37;;;;;;;;;;;25.40;59.40;;;;;;5133199;27;19972;-59
2021/07/16 08:34:04;;;;;;;;;;;25.40;59.30;;;;;;5131860;27;20014;-59
2021/07/16 08:36:31;;;;;;;;;;;25.40;59.30;;;;;;5132427;27;19973;-58
2021/07/16 08:38:58;;;;;;;;;;;25.40;59.30;;;;;;5130913;27;19923;-58
2021/07/16 08:41:25;;;;;;;;;;;25.50;59.50;;;;;;5114859;27;19993;-57
2021/07/16 08:43:52;;;;;;;;;;;25.40;59.50;;;;;;5114829;27;19928;-58
2021/07/16 08:46:19;;;;;;;;;;;25.40;59.50;;;;;;5114446;27;19931;-58
2021/07/16 08:48:49;;;;;;;;;;;25.40;59.50;;;;;;5133384;27;20286;-58
2021/07/16 08:51:21;;;;;;;;;;;25.50;59.60;;;;;;5132843;27;19967;-58
2021/07/16 08:53:53;;;;;;;;;;;25.50;59.60;;;;;;5132485;27;19937;-57
2021/07/16 08:56:28;;;;;;;;;;;25.50;59.40;;;;;;5131336;27;19930;-56
2021/07/16 08:58:55;;;;;;;;;;;25.50;59.20;;;;;;5131461;27;19930;-57
2021/07/16 09:01:22;;;;;;;;;;;25.50;59.40;;;;;;5131685;27;19927;-58
2021/07/16 09:03:55;;;;;;;;;;;25.60;59.40;;;;;;5131523;27;19923;-58
2021/07/16 09:06:41;;;;;;;;;;;25.60;59.20;;;;;;5131449;27;20267;-58
2021/07/16 09:09:08;;;;;;;;;;;25.60;59.10;;;;;;5131339;27;19931;-58
2021/07/16 09:11:39;;;;;;;;;;;25.60;59.00;;;;;;5130339;27;20324;-58
2021/07/16 09:14:06;;;;;;;;;;;25.70;58.80;;;;;;5129059;27;20336;-58
2021/07/16 09:16:33;;;;;;;;;;;25.70;58.80;;;;;;5131261;27;19942;-57
2021/07/16 09:19:00;;;;;;;;;;;25.70;59.00;;;;;;5129983;27;19973;-58
2021/07/16 09:21:27;;;;;;;;;;;25.70;58.80;;;;;;5130028;28;20264;-58
2021/07/16 09:24:02;;;;;;;;;;;25.80;58.50;;;;;;5134251;27;19927;-59
2021/07/16 09:26:29;;;;;;;;;;;25.80;58.80;;;;;;5138214;27;19924;-58
2021/07/16 09:28:57;;;;;;;;;;;25.80;58.70;;;;;;5138951;27;20379;-58
2021/07/16 09:31:25;;;;;;;;;;;25.90;58.60;;;;;;5136710;27;19981;-58
2021/07/16 09:34:01;;;;;;;;;;;25.90;58.60;;;;;;5139613;27;20014;-58
2021/07/16 09:36:27;;;;;;;;;;;25.90;58.50;;;;;;5137382;27;19975;-57
2021/07/16 09:38:56;;;;;;;;;;;25.90;58.30;;;;;;5130973;27;20096;-58
2021/07/16 09:41:24;;;;;;;;;;;26.00;58.40;;;;;;5132105;27;19927;-58
2021/07/16 09:43:51;;;;;;;;;;;26.00;58.10;;;;;;5137895;27;19924;-58
2021/07/16 09:46:18;;;;;;;;;;;26.10;57.90;;;;;;5140115;27;19930;-57
2021/07/16 09:48:45;;;;;;;;;;;26.20;57.80;;;;;;5136665;27;19923;-58
2021/07/16 09:51:17;;;;;;;;;;;26.20;57.50;;;;;;5133418;27;19923;-58
2021/07/16 09:53:44;;;;;;;;;;;26.30;57.10;;;;;;5124962;27;19971;-56
2021/07/16 09:56:12;;;;;;;;;;;26.30;56.90;;;;;;5140065;27;20011;-58
2021/07/16 09:58:39;;;;;;;;;;;26.30;56.80;;;;;;5137917;27;19924;-58
2021/07/16 10:01:06;;;;;;;;;;;26.30;56.90;;;;;;5139991;27;19923;-57
2021/07/16 10:03:35;;;;;;;;;;;26.30;56.70;;;;;;5139089;27;19923;-57
2021/07/16 10:06:04;;;;;;;;;;;26.40;56.90;;;;;;5140263;27;19963;-58
2021/07/16 10:08:32;;;;;;;;;;;26.40;57.00;;;;;;5120865;27;19931;-55
2021/07/16 10:11:04;;;;;;;;;;;26.40;56.80;;;;;;5138546;27;19923;-58
2021/07/16 10:13:33;;;;;;;;;;;26.40;56.60;;;;;;5138368;27;19924;-58
2021/07/16 10:16:01;;;;;;;;;;;26.40;56.40;;;;;;5138580;27;19928;-58
2021/07/16 10:18:28;;;;;;;;;;;26.50;56.50;;;;;;5137777;27;19923;-58
2021/07/16 10:20:59;;;;;;;;;;;26.50;56.20;;;;;;5138680;27;20338;-58
2021/07/16 10:23:26;;;;;;;;;;;26.50;56.40;;;;;;5137385;27;19930;-58
2021/07/16 10:25:54;;;;;;;;;;;26.60;56.50;;;;;;5137382;27;19928;-59
2021/07/16 10:28:39;;;;;;;;;;;26.60;56.60;;;;;;5120000;27;19945;-58
2021/07/16 10:31:27;;;;;;;;;;;26.60;56.50;;;;;;5138203;27;19923;-58
2021/07/16 10:33:55;;;;;;;;;;;26.60;56.50;;;;;;5104577;27;19976;-56
2021/07/16 10:36:37;;;;;;;;;;;26.60;56.40;;;;;;5117148;27;19973;-57
2021/07/16 10:39:04;;;;;;;;;;;26.70;56.20;;;;;;5134412;27;20336;-57
2021/07/16 10:41:37;;;;;;;;;;;26.70;56.00;;;;;;5135037;27;20344;-56
2021/07/16 10:44:05;;;;;;;;;;;26.70;56.00;;;;;;5135203;27;19972;-57
2021/07/16 10:46:44;;;;;;;;;;;26.70;55.80;;;;;;5119938;27;20342;-57
2021/07/16 10:49:12;;;;;;;;;;;26.70;56.00;;;;;;5119148;27;20282;-57
2021/07/16 10:51:40;;;;;;;;;;;26.80;56.10;;;;;;5134747;27;19958;-57
2021/07/16 10:54:11;;;;;;;;;;;26.80;56.00;;;;;;5116536;27;19977;-57
2021/07/16 10:56:42;;;;;;;;;;;26.80;56.00;;;;;;5132386;27;19924;-57
2021/07/16 10:59:11;;;;;;;;;;;26.80;56.10;;;;;;5132481;27;19923;-57
2021/07/16 11:01:40;;;;;;;;;;;26.80;55.90;;;;;;5133602;27;19927;-57
2021/07/16 11:04:40;;;;;;;;;;;26.80;55.90;;;;;;5134919;27;19976;-57
2021/07/16 11:07:07;;;;;;;;;;;26.80;55.90;;;;;;5032824;28;19955;-57
2021/07/16 11:09:39;;;;;;;;;;;26.90;55.80;;;;;;5032484;28;20032;-57
2021/07/16 11:12:19;;;;;;;;;;;26.90;55.70;;;;;;5034768;28;19925;-57
2021/07/16 11:14:46;;;;;;;;;;;27.00;55.70;;;;;;5032524;28;20385;-57
2021/07/16 11:17:29;;;;;;;;;;;26.90;55.60;;;;;;5032511;28;19947;-57
2021/07/16 11:20:14;;;;;;;;;;;26.90;55.60;;;;;;5033825;28;19968;-58
2021/07/16 11:22:59;;;;;;;;;;;27.00;55.50;;;;;;5032529;28;19978;-58
2021/07/16 11:25:31;;;;;;;;;;;27.00;55.60;;;;;;5033865;28;19925;-57
2021/07/16 11:27:58;;;;;;;;;;;27.00;55.50;;;;;;5033465;28;19967;-57
2021/07/16 11:30:25;;;;;;;;;;;27.00;55.60;;;;;;5033050;28;19968;-57
2021/07/16 11:32:59;;;;;;;;;;;27.00;55.60;;;;;;5032803;28;19925;-57
2021/07/16 11:35:26;;;;;;;;;;;27.00;55.50;;;;;;5030547;28;19932;-57
2021/07/16 11:37:53;;;;;;;;;;;27.00;55.50;;;;;;5031176;28;20394;-57
2021/07/16 11:40:21;;;;;;;;;;;27.00;55.50;;;;;;5016474;28;19925;-57
2021/07/16 11:42:49;;;;;;;;;;;27.00;55.50;;;;;;5085220;27;20353;-57
2021/07/16 11:45:21;;;;;;;;;;;27.00;55.50;;;;;;5131055;27;19923;-57
2021/07/16 11:47:49;;;;;;;;;;;27.00;55.50;;;;;;5132650;27;19924;-58
2021/07/16 11:50:16;;;;;;;;;;;27.00;55.50;;;;;;5131261;27;19962;-58
2021/07/16 11:52:44;;;;;;;;;;;27.00;55.50;;;;;;5132410;27;19973;-58
2021/07/16 11:55:13;;;;;;;;;;;27.00;55.60;;;;;;5132590;27;19927;-58
2021/07/16 11:58:01;;;;;;;;;;;27.00;55.70;;;;;;5115989;27;19990;-58
2021/07/16 12:00:38;;;;;;;;;;;27.00;55.60;;;;;;5132510;27;19923;-58
2021/07/16 12:03:09;;;;;;;;;;;27.00;55.60;;;;;;5131559;27;19980;-58
2021/07/16 12:05:51;;;;;;;;;;;27.00;55.60;;;;;;5134639;27;19976;-58
2021/07/16 12:08:19;;;;;;;;;;;27.00;55.40;;;;;;5132650;27;19923;-58
2021/07/16 12:10:47;;;;;;;;;;;27.00;55.50;;;;;;5133352;27;19931;-58
2021/07/16 12:13:17;;;;;;;;;;;27.00;55.50;;;;;;5131599;27;19998;-58
2021/07/16 12:15:45;;;;;;;;;;;27.00;55.60;;;;;;5133524;27;19931;-58
2021/07/16 12:18:12;;;;;;;;;;;27.00;56.00;;;;;;5131141;27;20009;-58
2021/07/16 12:20:39;;;;;;;;;;;26.90;55.30;;;;;;5133275;27;19931;-57
2021/07/16 12:23:08;;;;;;;;;;;26.90;55.50;;;;;;5124832;27;20014;-56
2021/07/16 12:25:37;;;;;;;;;;;26.90;55.60;;;;;;5116795;27;20280;-57
2021/07/16 12:28:05;;;;;;;;;;;26.90;55.60;;;;;;5121838;27;20335;-57
2021/07/16 12:30:32;;;;;;;;;;;26.90;55.60;;;;;;5131934;27;19968;-57
2021/07/16 12:33:07;;;;;;;;;;;26.90;55.70;;;;;;5133067;27;19927;-57
2021/07/16 12:35:38;;;;;;;;;;;26.90;55.70;;;;;;5129635;27;20264;-57
2021/07/16 12:38:06;;;;;;;;;;;26.80;55.70;;;;;;5119911;27;19977;-56
2021/07/16 12:40:34;;;;;;;;;;;26.80;55.80;;;;;;5131466;27;19924;-57
2021/07/16 12:43:13;;;;;;;;;;;26.80;55.80;;;;;;5131898;27;19924;-56
2021/07/16 12:45:49;;;;;;;;;;;26.80;55.70;;;;;;5132021;27;19930;-57
2021/07/16 12:48:28;;;;;;;;;;;26.80;55.90;;;;;;5130272;27;19923;-57
2021/07/16 12:51:14;;;;;;;;;;;26.80;55.80;;;;;;5132632;27;20002;-58
2021/07/16 12:53:42;;;;;;;;;;;26.80;55.90;;;;;;5131145;27;19962;-57
2021/07/16 12:56:15;;;;;;;;;;;26.80;55.90;;;;;;5131327;27;19924;-57
2021/07/16 12:58:43;;;;;;;;;;;26.80;55.90;;;;;;5130510;27;19923;-57
2021/07/16 13:01:10;;;;;;;;;;;26.80;55.80;;;;;;5132578;27;19923;-57
2021/07/16 13:03:39;;;;;;;;;;;26.80;55.90;;;;;;5129860;27;20363;-58
2021/07/16 13:06:17;;;;;;;;;;;26.80;55.80;;;;;;5131199;27;19976;-57
2021/07/16 13:09:03;;;;;;;;;;;26.80;55.70;;;;;;5132968;27;19927;-58
2021/07/16 13:11:30;;;;;;;;;;;26.90;55.80;;;;;;5126808;27;19928;-58
2021/07/16 13:13:57;;;;;;;;;;;26.80;55.70;;;;;;5118814;27;19983;-57
2021/07/16 13:16:24;;;;;;;;;;;26.80;55.70;;;;;;5132453;27;19924;-58
2021/07/16 13:18:56;;;;;;;;;;;26.90;55.80;;;;;;5131233;27;20386;-57
2021/07/16 13:21:23;;;;;;;;;;;26.90;55.80;;;;;;5128733;28;19970;-57
2021/07/16 13:23:50;;;;;;;;;;;26.90;55.70;;;;;;5116854;28;19924;-58
2021/07/16 13:26:18;;;;;;;;;;;26.90;55.70;;;;;;5115388;28;19973;-58
2021/07/16 13:28:45;;;;;;;;;;;26.90;55.70;;;;;;5133712;28;19928;-57
2021/07/16 13:31:13;;;;;;;;;;;26.90;55.70;;;;;;5115239;28;19924;-58
2021/07/16 13:33:40;;;;;;;;;;;26.90;55.70;;;;;;5113574;28;19924;-57
2021/07/16 13:36:07;;;;;;;;;;;26.90;55.70;;;;;;5122015;28;19973;-56
2021/07/16 13:38:34;;;;;;;;;;;26.90;55.60;;;;;;5130532;28;19966;-56
2021/07/16 13:41:03;;;;;;;;;;;26.90;55.60;;;;;;5131850;28;19924;-58
2021/07/16 13:43:30;;;;;;;;;;;26.90;55.60;;;;;;5129525;28;20437;-58
2021/07/16 13:45:57;;;;;;;;;;;26.90;55.60;;;;;;5130730;28;19930;-58
2021/07/16 13:48:25;;;;;;;;;;;26.90;55.50;;;;;;5133583;28;20014;-58
2021/07/16 13:50:52;;;;;;;;;;;26.90;55.50;;;;;;5132270;28;19931;-58
2021/07/16 13:53:20;;;;;;;;;;;27.00;55.50;;;;;;5131065;28;19923;-57
2021/07/16 13:55:48;;;;;;;;;;;27.00;55.40;;;;;;5130257;28;19927;-58
2021/07/16 13:58:15;;;;;;;;;;;27.00;55.30;;;;;;5129159;28;20447;-57
2021/07/16 14:00:42;;;;;;;;;;;27.00;55.30;;;;;;5130740;28;19967;-58
2021/07/16 14:03:10;;;;;;;;;;;27.00;55.40;;;;;;5129354;28;20414;-57
2021/07/16 14:05:37;;;;;;;;;;;27.00;55.40;;;;;;5123103;28;20006;-57
2021/07/16 14:08:04;;;;;;;;;;;27.10;55.40;;;;;;5122788;28;20011;-57
2021/07/16 14:10:31;;;;;;;;;;;27.10;55.30;;;;;;5129488;27;20375;-57
2021/07/16 14:12:58;;;;;;;;;;;27.10;55.30;;;;;;5119127;27;19963;-57
2021/07/16 14:15:25;;;;;;;;;;;27.10;55.30;;;;;;5123605;27;19923;-57
2021/07/16 14:17:52;;;;;;;;;;;27.10;55.30;;;;;;5136980;27;19924;-57
2021/07/16 14:20:19;;;;;;;;;;;27.10;55.20;;;;;;5134274;27;20328;-58
2021/07/16 14:22:47;;;;;;;;;;;27.10;55.20;;;;;;5135501;27;19967;-57
2021/07/16 14:25:14;;;;;;;;;;;27.10;55.20;;;;;;5135167;27;19967;-57